Time,TemperatureF,DewpointF,PressureIn,WindDirection,WindDirectionDegrees,WindSpeedMPH,WindSpeedGustMPH,Humidity,HourlyPrecipIn,Conditions,Clouds,dailyrainin,SoftwareType,DateUTC
2013-08-21 00:22:00,71.0,-99.9,-100.00,North,0,0.0,0.0,-999,0.00,,,-99.99,,2013-08-21 06:22:00,
2013-08-21 00:52:00,69.0,-99.9,-100.00,ENE,75,2.0,5.0,-999,0.00,,,-99.99,,2013-08-21 06:52:00,
2013-08-21 01:22:00,68.0,-99.9,-100.00,North,0,0.0,0.0,-999,0.00,,,-99.99,,2013-08-21 07:22:00,
2013-08-21 01:53:00,66.0,-99.9,-100.00,North,0,0.0,0.0,-999,0.00,,,-99.99,,2013-08-21 07:53:00,
2013-08-21 02:22:00,65.0,-99.9,-100.00,North,0,0.0,0.0,-999,0.00,,,-99.99,,2013-08-21 08:22:00,
2013-08-21 02:53:00,65.0,-99.9,-100.00,North,0,0.0,0.0,-999,0.00,,,-99.99,,2013-08-21 08:53:00,
2013-08-21 03:22:00,65.0,-99.9,-100.00,North,0,0.0,0.0,-999,0.00,,,-99.99,,2013-08-21 09:22:00,
2013-08-21 03:54:00,64.0,-99.9,-100.00,North,0,0.0,0.0,-999,0.00,,,-99.99,,2013-08-21 09:54:00,
2013-08-21 04:23:00,66.0,-99.9,-100.00,SSW,194,2.0,4.0,-999,0.00,,,-99.99,,2013-08-21 10:23:00,
2013-08-21 04:53:00,65.0,-99.9,-100.00,North,0,0.0,0.0,-999,0.00,,,-99.99,,2013-08-21 10:53:00,
2013-08-21 05:22:00,64.0,-99.9,-100.00,North,0,0.0,0.0,-999,0.00,,,-99.99,,2013-08-21 11:22:00,
2013-08-21 05:53:00,61.0,-99.9,-100.00,North,0,0.0,0.0,-999,0.00,,,-99.99,,2013-08-21 11:53:00,
2013-08-21 06:22:00,62.0,-99.9,-100.00,North,0,0.0,0.0,-999,0.00,,,-99.99,,2013-08-21 12:22:00,
2013-08-21 06:52:00,63.0,-99.9,-100.00,North,0,0.0,0.0,-999,0.00,,,-99.99,,2013-08-21 12:52:00,
2013-08-21 07:22:00,62.0,-99.9,-100.00,North,0,0.0,0.0,-999,0.00,,,-99.99,,2013-08-21 13:22:00,
2013-08-21 07:52:00,65.0,-99.9,-100.00,North,0,0.0,0.0,-999,0.00,,,-99.99,,2013-08-21 13:52:00,
2013-08-21 08:22:00,64.0,-99.9,-100.00,North,0,0.0,0.0,-999,0.00,,,-99.99,,2013-08-21 14:22:00,
2013-08-21 08:52:00,68.0,-99.9,-100.00,East,83,5.0,7.0,-999,0.00,,,-99.99,,2013-08-21 14:52:00,
2013-08-21 09:22:00,68.0,-99.9,-100.00,NE,53,6.0,7.0,-999,0.00,,,-99.99,,2013-08-21 15:22:00,
2013-08-21 09:55:00,68.0,-99.9,-100.00,ENE,70,6.0,8.0,-999,0.00,,,-99.99,,2013-08-21 15:55:00,
2013-08-21 10:24:00,69.0,-99.9,-100.00,NE,55,6.0,8.0,-999,0.00,,,-99.99,,2013-08-21 16:24:00,
2013-08-21 10:53:00,71.0,-99.9,-100.00,ENE,69,6.0,7.0,-999,0.00,,,-99.99,,2013-08-21 16:53:00,
2013-08-21 11:23:00,72.0,-99.9,-100.00,East,90,6.0,9.0,-999,0.00,,,-99.99,,2013-08-21 17:23:00,
2013-08-21 11:53:00,73.0,-99.9,-100.00,NE,49,6.0,9.0,-999,0.00,,,-99.99,,2013-08-21 17:53:00,
2013-08-21 12:03:00,73.0,-99.9,-100.00,NE,49,6.0,9.0,-999,0.00,,,-99.99,,2013-08-21 18:03:00,
2013-08-21 12:22:00,75.0,-99.9,-100.00,East,91,6.0,8.0,-999,0.00,,,-99.99,,2013-08-21 18:22:00,
2013-08-21 12:52:00,77.0,-99.9,-100.00,East,89,6.0,7.0,-999,0.00,,,-99.99,,2013-08-21 18:52:00,
2013-08-21 13:02:00,77.0,-99.9,-100.00,East,89,6.0,7.0,-999,0.00,,,-99.99,,2013-08-21 19:02:00,
2013-08-21 13:22:00,79.0,-99.9,-100.00,SE,131,5.0,6.0,-999,0.00,,,-99.99,,2013-08-21 19:22:00,
2013-08-21 13:53:00,79.0,-99.9,-100.00,ESE,110,5.0,6.0,-999,0.00,,,-99.99,,2013-08-21 19:53:00,
2013-08-21 14:22:00,81.0,-99.9,-100.00,ENE,75,5.0,7.0,-999,0.00,,,-99.99,,2013-08-21 20:22:00,
2013-08-21 14:52:00,80.0,-99.9,-100.00,ENE,65,5.0,7.0,-999,0.00,,,-99.99,,2013-08-21 20:52:00,
2013-08-21 15:22:00,82.0,-99.9,-100.00,East,97,5.0,6.0,-999,0.00,,,-99.99,,2013-08-21 21:22:00,
2013-08-21 15:55:00,83.0,-99.9,-100.00,North,0,0.0,0.0,-999,0.00,,,-99.99,,2013-08-21 21:55:00,
2013-08-21 16:24:00,84.0,-99.9,-100.00,North,0,0.0,0.0,-999,0.00,,,-99.99,,2013-08-21 22:24:00,
2013-08-21 16:53:00,88.0,-99.9,-100.00,East,98,2.0,5.0,-999,0.00,,,-99.99,,2013-08-21 22:53:00,
2013-08-21 17:22:00,85.0,-99.9,-100.00,ESE,117,5.0,7.0,-999,0.00,,,-99.99,,2013-08-21 23:22:00,
2013-08-21 17:53:00,85.0,-99.9,-100.00,East,93,6.0,8.0,-999,0.00,,,-99.99,,2013-08-21 23:53:00,
2013-08-21 18:22:00,82.0,-99.9,-100.00,East,98,6.0,8.0,-999,0.00,,,-99.99,,2013-08-22 00:22:00,
2013-08-21 18:52:00,81.0,-99.9,-100.00,NE,41,6.0,8.0,-999,0.00,,,-99.99,,2013-08-22 00:52:00,
2013-08-21 19:22:00,76.0,-99.9,-100.00,East,82,7.0,9.0,-999,0.00,,,-99.99,,2013-08-22 01:22:00,
2013-08-21 19:52:00,76.0,-99.9,-100.00,ENE,62,6.0,8.0,-999,0.00,,,-99.99,,2013-08-22 01:52:00,
2013-08-21 20:22:00,72.0,-99.9,-100.00,East,79,6.0,9.0,-999,0.00,,,-99.99,,2013-08-22 02:22:00,
2013-08-21 20:32:00,72.0,-99.9,-100.00,East,79,6.0,9.0,-999,0.00,,,-99.99,,2013-08-22 02:32:00,
2013-08-21 20:43:00,72.0,-99.9,-100.00,East,79,6.0,9.0,-999,0.00,,,-99.99,,2013-08-22 02:43:00,
2013-08-21 21:12:00,71.0,-99.9,-100.00,ESE,107,6.0,8.0,-999,0.00,,,-99.99,,2013-08-22 03:12:00,
2013-08-21 21:23:00,71.0,-99.9,-100.00,ESE,107,6.0,8.0,-999,0.00,,,-99.99,,2013-08-22 03:23:00,
2013-08-21 21:54:00,69.0,-99.9,-100.00,ESE,104,6.0,8.0,-999,0.00,,,-99.99,,2013-08-22 03:54:00,
2013-08-21 22:24:00,68.0,-99.9,-100.00,East,79,6.0,8.0,-999,0.00,,,-99.99,,2013-08-22 04:24:00,
2013-08-21 22:54:00,67.0,-99.9,-100.00,ENE,63,6.0,7.0,-999,0.00,,,-99.99,,2013-08-22 04:54:00,
2013-08-21 23:23:00,64.0,-99.9,-100.00,ESE,105,5.0,6.0,-999,0.00,,,-99.99,,2013-08-22 05:23:00,
2013-08-21 23:53:00,64.0,-99.9,-100.00,East,97,5.0,7.0,-999,0.00,,,-99.99,,2013-08-22 05:53:00,